createdAt,value
2022-11-22T00:00:53.703Z,-2.41
2022-11-22T00:01:56.605Z,-2.46
2022-11-22T00:03:01.410Z,-2.45
2022-11-22T00:04:04.157Z,-2.52
2022-11-22T00:05:06.985Z,-2.55
2022-11-22T00:06:10.899Z,-2.43
2022-11-22T00:07:13.783Z,-2.43
2022-11-22T00:08:22.126Z,-2.41
2022-11-22T00:09:25.234Z,-2.45
2022-11-22T00:10:28.111Z,-2.40
2022-11-22T00:11:32.177Z,-2.51
2022-11-22T00:12:35.153Z,-2.46
2022-11-22T00:13:38.552Z,-2.32
2022-11-22T00:14:41.237Z,-2.31
2022-11-22T00:15:45.708Z,-2.34
2022-11-22T00:16:48.521Z,-2.40
2022-11-22T00:17:51.474Z,-2.38
2022-11-22T00:18:54.399Z,-2.39
2022-11-22T00:19:58.468Z,-2.34
2022-11-22T00:21:09.330Z,-2.33
2022-11-22T00:22:11.972Z,-2.21
2022-11-22T00:23:17.127Z,-2.22
2022-11-22T00:24:20.255Z,-2.30
2022-11-22T00:25:23.584Z,-2.42
2022-11-22T00:26:26.469Z,-2.31
2022-11-22T00:27:29.537Z,-2.22
2022-11-22T00:28:35.084Z,-2.26
2022-11-22T00:29:38.230Z,-2.21
2022-11-22T00:30:41.253Z,-2.20
2022-11-22T00:31:43.944Z,-2.25
2022-11-22T00:32:46.605Z,-2.19
2022-11-22T00:33:49.464Z,-2.27
2022-11-22T00:34:53.490Z,-2.15
2022-11-22T00:35:56.226Z,-2.13
2022-11-22T00:36:58.880Z,-2.23
2022-11-22T00:38:02.374Z,-2.30
2022-11-22T00:39:07.882Z,-2.34
2022-11-22T00:40:11.173Z,-2.18
2022-11-22T00:41:16.942Z,-2.24
2022-11-22T00:42:19.582Z,-2.22
2022-11-22T00:43:23.414Z,-2.35
2022-11-22T00:44:26.682Z,-2.44
2022-11-22T00:45:29.567Z,-2.28
2022-11-22T00:46:32.469Z,-2.26
2022-11-22T00:47:37.019Z,-2.27
2022-11-22T00:48:40.243Z,-2.22
2022-11-22T00:49:43.265Z,-2.25
2022-11-22T00:50:49.556Z,-2.17
2022-11-22T00:51:52.217Z,-2.16
2022-11-22T00:52:57.964Z,-2.17
2022-11-22T00:54:01.598Z,-2.12
2022-11-22T00:55:04.596Z,-2.45
2022-11-22T00:56:09.539Z,-2.23
2022-11-22T00:57:12.531Z,-2.29
2022-11-22T00:58:15.559Z,-2.22
2022-11-22T00:59:19.834Z,-2.15
2022-11-22T01:00:22.944Z,-2.25
2022-11-22T01:01:25.880Z,-2.16
2022-11-22T01:02:29.641Z,-2.20
2022-11-22T01:03:32.545Z,-2.21
2022-11-22T01:04:35.505Z,-2.21
2022-11-22T01:05:38.250Z,-2.13
2022-11-22T01:06:42.786Z,-2.16
2022-11-22T01:07:45.806Z,-2.28
2022-11-22T01:08:49.928Z,-2.25
2022-11-22T01:09:52.966Z,-2.26
2022-11-22T01:10:59.531Z,-2.20
2022-11-22T01:12:02.624Z,-2.14
2022-11-22T01:13:06.597Z,-2.13
2022-11-22T01:14:10.350Z,-2.08
2022-11-22T01:15:15.374Z,-2.22
2022-11-22T01:16:18.065Z,-2.22
2022-11-22T01:17:20.738Z,-2.23
2022-11-22T01:18:23.379Z,-2.21
2022-11-22T01:19:26.517Z,-2.14
2022-11-22T01:20:31.134Z,-2.15
2022-11-22T01:21:34.251Z,-2.14
2022-11-22T01:22:36.863Z,-2.14
2022-11-22T01:23:39.646Z,-2.15
2022-11-22T01:24:43.125Z,-2.21
2022-11-22T01:25:45.815Z,-2.31
2022-11-22T01:26:48.745Z,-2.33
2022-11-22T01:27:51.499Z,-2.34
2022-11-22T01:28:54.550Z,-2.40
2022-11-22T01:29:57.354Z,-2.38
2022-11-22T01:31:00.013Z,-2.27
2022-11-22T01:32:02.572Z,-2.20
2022-11-22T01:33:05.244Z,-2.23
2022-11-22T01:34:08.325Z,-2.22
2022-11-22T01:35:12.167Z,-2.20
2022-11-22T01:36:18.851Z,-2.21
2022-11-22T01:37:22.092Z,-2.19
2022-11-22T01:38:25.318Z,-2.18
2022-11-22T01:39:28.835Z,-2.02
2022-11-22T01:40:33.087Z,-2.08
2022-11-22T01:41:37.261Z,-2.11
2022-11-22T01:42:49.603Z,-2.16
2022-11-22T01:43:54.904Z,-2.07
2022-11-22T01:45:31.181Z,-2.11
2022-11-22T01:46:39.583Z,-2.07
2022-11-22T01:47:42.922Z,-2.09
2022-11-22T01:49:00.230Z,-1.84
2022-11-22T01:50:07.993Z,-1.90
2022-11-22T01:51:30.335Z,-2.04
2022-11-22T01:52:35.065Z,-2.07
2022-11-22T01:53:39.810Z,-2.04
2022-11-22T01:54:50.917Z,-2.11
2022-11-22T01:55:55.876Z,-2.06
2022-11-22T01:57:02.848Z,-1.95
2022-11-22T01:58:08.328Z,-2.03
2022-11-22T01:59:15.124Z,-2.05
2022-11-22T02:00:19.893Z,-2.10
2022-11-22T02:01:23.398Z,-2.17
2022-11-22T02:02:28.078Z,-2.00
2022-11-22T02:03:33.914Z,-1.94
2022-11-22T02:04:38.256Z,-1.96
2022-11-22T02:05:42.325Z,-2.01
2022-11-22T02:07:06.375Z,-1.97
2022-11-22T02:08:19.021Z,-1.88
2022-11-22T02:09:23.191Z,-2.01
2022-11-22T02:10:29.714Z,-2.07
2022-11-22T02:11:34.432Z,-1.96
2022-11-22T02:12:37.765Z,-2.05
2022-11-22T02:13:44.956Z,-1.90
2022-11-22T02:14:48.143Z,-1.78
2022-11-22T02:15:52.413Z,-2.01
2022-11-22T02:16:56.814Z,-2.02
2022-11-22T02:17:59.858Z,-1.85
2022-11-22T02:19:02.969Z,-1.99
2022-11-22T02:20:07.955Z,-2.11
2022-11-22T02:21:11.529Z,-1.94
2022-11-22T02:22:33.266Z,-2.06
2022-11-22T02:23:57.459Z,-1.90
2022-11-22T02:25:30.225Z,-1.93
2022-11-22T02:26:35.217Z,-2.02
2022-11-22T02:27:42.179Z,-1.89
2022-11-22T02:28:45.783Z,-1.85
2022-11-22T02:29:51.485Z,-1.90
2022-11-22T02:30:56.937Z,-1.93
2022-11-22T02:32:00.012Z,-1.94
2022-11-22T02:33:08.782Z,-2.07
2022-11-22T02:34:13.573Z,-2.02
2022-11-22T02:35:26.211Z,-1.91
2022-11-22T02:36:35.907Z,-1.97
2022-11-22T02:37:42.398Z,-1.97
2022-11-22T02:38:49.638Z,-1.82
2022-11-22T02:40:00.016Z,-1.80
2022-11-22T02:41:07.721Z,-1.93
2022-11-22T02:42:15.167Z,-1.93
2022-11-22T02:43:27.201Z,-1.93
2022-11-22T02:44:31.201Z,-1.91
2022-11-22T02:45:34.688Z,-1.94
2022-11-22T02:46:47.435Z,-1.97
2022-11-22T02:47:50.724Z,-1.95
2022-11-22T02:48:58.602Z,-1.93
2022-11-22T02:50:02.554Z,-1.95
2022-11-22T02:51:10.292Z,-1.86
2022-11-22T02:52:19.913Z,-1.86
2022-11-22T02:53:29.475Z,-1.94
2022-11-22T02:54:33.578Z,-1.98
2022-11-22T02:55:37.326Z,-1.95
2022-11-22T02:56:41.371Z,-1.88
2022-11-22T02:57:44.761Z,-1.89
2022-11-22T02:58:48.573Z,-1.97
2022-11-22T02:59:51.995Z,-1.92
2022-11-22T03:00:55.924Z,-1.87
2022-11-22T03:02:03.779Z,-1.82
2022-11-22T03:03:08.496Z,-1.80
2022-11-22T03:04:25.351Z,-1.62
2022-11-22T03:05:29.079Z,-1.65
2022-11-22T03:06:35.016Z,-1.73
2022-11-22T03:07:38.623Z,-1.68
2022-11-22T03:08:45.250Z,-1.73
2022-11-22T03:09:49.495Z,-1.73
2022-11-22T03:10:54.482Z,-1.70
2022-11-22T03:12:00.836Z,-1.67
2022-11-22T03:13:10.850Z,-1.71
2022-11-22T03:14:19.557Z,-1.79
2022-11-22T03:15:25.842Z,-1.70
2022-11-22T03:16:31.217Z,-1.76
2022-11-22T03:17:35.219Z,-1.78
2022-11-22T03:18:39.414Z,-1.77
2022-11-22T03:19:45.672Z,-1.79
2022-11-22T03:20:49.626Z,-1.77
2022-11-22T03:21:57.292Z,-1.78
2022-11-22T03:23:01.600Z,-1.84
2022-11-22T03:24:12.766Z,-1.77
2022-11-22T03:25:24.150Z,-1.74
2022-11-22T03:26:27.860Z,-1.85
2022-11-22T03:27:32.484Z,-1.76
2022-11-22T03:28:37.487Z,-1.76
2022-11-22T03:29:41.978Z,-1.79
2022-11-22T03:30:44.968Z,-1.77
2022-11-22T03:31:50.054Z,-1.68
2022-11-22T03:32:56.247Z,-1.85
2022-11-22T03:34:09.467Z,-1.71
2022-11-22T03:35:15.908Z,-1.77
2022-11-22T03:36:19.145Z,-1.75
2022-11-22T03:37:29.722Z,-1.84
2022-11-22T03:38:35.425Z,-1.76
2022-11-22T03:39:38.541Z,-1.80
2022-11-22T03:40:41.203Z,-1.93
2022-11-22T03:41:44.431Z,-1.90
2022-11-22T03:42:48.214Z,-1.82
2022-11-22T03:43:51.290Z,-1.87
2022-11-22T03:44:54.439Z,-1.83
2022-11-22T03:45:57.627Z,-1.82
2022-11-22T03:47:00.134Z,-1.91
2022-11-22T03:48:06.394Z,-1.83
2022-11-22T03:49:12.300Z,-1.80
2022-11-22T03:50:16.531Z,-1.73
2022-11-22T03:51:19.677Z,-1.81
2022-11-22T03:52:22.177Z,-1.78
2022-11-22T03:53:25.449Z,-1.69
2022-11-22T03:54:30.883Z,-1.67
2022-11-22T03:55:33.962Z,-1.78
2022-11-22T03:56:37.023Z,-1.80
2022-11-22T03:57:39.938Z,-1.87
2022-11-22T03:58:42.816Z,-1.87
2022-11-22T03:59:47.313Z,-1.77
2022-11-22T04:00:51.094Z,-1.75
2022-11-22T04:01:55.501Z,-1.77
2022-11-22T04:02:58.724Z,-1.69
2022-11-22T04:04:01.339Z,-1.73
2022-11-22T04:05:04.317Z,-1.74
2022-11-22T04:06:09.626Z,-1.70
2022-11-22T04:07:15.470Z,-1.81
2022-11-22T04:08:19.099Z,-1.71
2022-11-22T04:09:22.971Z,-1.73
2022-11-22T04:10:28.462Z,-1.73
2022-11-22T04:11:33.813Z,-1.79
2022-11-22T04:12:37.891Z,-1.74
2022-11-22T04:13:58.991Z,-1.80
2022-11-22T04:15:08.211Z,-1.74
2022-11-22T04:16:10.841Z,-1.80
2022-11-22T04:17:35.442Z,-1.77
2022-11-22T04:18:40.464Z,-1.64
2022-11-22T04:20:03.165Z,-1.63
2022-11-22T04:21:29.147Z,-1.72
2022-11-22T04:22:32.163Z,-1.70
2022-11-22T04:23:35.537Z,-1.69
2022-11-22T04:24:57.447Z,-1.70
2022-11-22T04:26:03.838Z,-1.70
2022-11-22T04:27:07.802Z,-1.69
2022-11-22T04:28:11.942Z,-1.67
2022-11-22T04:29:24.604Z,-1.82
2022-11-22T04:30:52.114Z,-1.75
2022-11-22T04:32:18.102Z,-1.72
2022-11-22T04:33:25.745Z,-1.74
2022-11-22T04:34:31.367Z,-1.83
2022-11-22T04:35:47.029Z,-1.64
2022-11-22T04:37:01.143Z,-1.62
2022-11-22T04:38:07.941Z,-1.58
2022-11-22T04:39:11.683Z,-1.74
2022-11-22T04:40:18.846Z,-1.63
2022-11-22T04:41:26.083Z,-1.59
2022-11-22T04:43:01.007Z,-1.66
2022-11-22T04:44:23.774Z,-1.63
2022-11-22T04:45:28.941Z,-1.65
2022-11-22T04:46:35.258Z,-1.75
2022-11-22T04:47:58.717Z,-1.70
2022-11-22T04:49:03.552Z,-1.66
2022-11-22T04:50:38.540Z,-1.64
2022-11-22T04:52:01.193Z,-1.56
2022-11-22T04:53:10.292Z,-1.65
2022-11-22T04:54:15.343Z,-1.59
2022-11-22T04:55:18.701Z,-1.53
2022-11-22T04:56:34.578Z,-1.48
2022-11-22T04:57:39.338Z,-1.38
2022-11-22T04:58:44.279Z,-1.44
2022-11-22T04:59:54.095Z,-1.57
2022-11-22T05:01:04.678Z,-1.52
2022-11-22T05:02:09.578Z,-1.42
2022-11-22T05:03:17.794Z,-1.42
2022-11-22T05:04:23.136Z,-1.53
2022-11-22T05:05:29.516Z,-1.42
2022-11-22T05:06:34.438Z,-1.45
2022-11-22T05:07:38.006Z,-1.56
2022-11-22T05:08:44.933Z,-1.45
2022-11-22T05:09:52.280Z,-1.48
2022-11-22T05:10:58.683Z,-1.53
2022-11-22T05:12:06.571Z,-1.43
2022-11-22T05:13:10.648Z,-1.36
2022-11-22T05:14:15.967Z,-1.38
2022-11-22T05:15:26.736Z,-1.33
2022-11-22T05:16:32.609Z,-1.33
2022-11-22T05:17:38.640Z,-1.36
2022-11-22T05:18:42.656Z,-1.31
2022-11-22T05:19:49.454Z,-1.14
2022-11-22T05:20:53.334Z,-1.16
2022-11-22T05:21:57.764Z,-1.12
2022-11-22T05:23:19.328Z,-1.15
2022-11-22T05:24:26.810Z,-1.21
2022-11-22T05:25:31.654Z,-1.19
2022-11-22T05:27:04.943Z,-1.23
2022-11-22T05:28:11.969Z,-1.16
2022-11-22T05:29:27.981Z,-1.09
2022-11-22T05:30:37.922Z,-1.06
2022-11-22T05:31:50.994Z,-1.04
2022-11-22T05:33:00.900Z,-1.09
2022-11-22T05:34:12.985Z,-1.04
2022-11-22T05:35:15.696Z,-0.99
2022-11-22T05:36:18.772Z,-0.86
2022-11-22T05:37:23.107Z,-0.87
2022-11-22T05:38:27.399Z,-1.01
2022-11-22T05:39:34.969Z,-1.06
2022-11-22T05:40:38.427Z,-0.89
2022-11-22T05:41:56.241Z,-0.96
2022-11-22T05:43:07.477Z,-0.97
2022-11-22T05:44:11.916Z,-0.99
2022-11-22T05:45:21.776Z,-0.90
2022-11-22T05:46:31.146Z,-1.00
2022-11-22T05:47:39.253Z,-0.98
2022-11-22T05:48:47.927Z,-0.87
2022-11-22T05:49:54.244Z,-0.92
2022-11-22T05:50:59.201Z,-0.91
2022-11-22T05:52:03.270Z,-0.96
2022-11-22T05:53:11.023Z,-0.91
2022-11-22T05:54:16.754Z,-0.87
2022-11-22T05:55:31.394Z,-0.87
2022-11-22T05:57:12.573Z,-0.83
2022-11-22T06:00:21.044Z,-0.83
2022-11-22T06:02:01.638Z,-0.80
2022-11-22T06:03:15.205Z,-0.82
2022-11-22T06:04:24.969Z,-0.69
2022-11-22T06:05:32.102Z,-0.69
2022-11-22T06:06:34.655Z,-0.61
2022-11-22T06:07:41.157Z,-0.55
2022-11-22T06:09:03.384Z,-0.54
2022-11-22T06:10:10.640Z,-0.63
2022-11-22T06:11:22.670Z,-0.56
2022-11-22T06:12:29.440Z,-0.66
2022-11-22T06:13:43.869Z,-0.57
2022-11-22T06:14:46.789Z,-0.62
2022-11-22T06:16:02.727Z,-0.58
2022-11-22T06:17:06.605Z,-0.50
2022-11-22T06:18:14.197Z,-0.50
2022-11-22T06:19:16.956Z,-0.45
2022-11-22T06:20:24.699Z,-0.47
2022-11-22T06:21:36.511Z,-0.56
2022-11-22T07:23:31.188Z,0.06
2022-11-22T07:24:33.648Z,0.06
2022-11-22T07:25:36.312Z,0.08
2022-11-22T07:26:38.885Z,0.24
2022-11-22T07:27:41.411Z,0.14
2022-11-22T07:28:50.178Z,0.23
2022-11-22T07:29:52.854Z,0.22
2022-11-22T07:31:00.840Z,0.32
2022-11-22T07:32:04.069Z,0.36
2022-11-22T07:33:08.190Z,0.34
2022-11-22T07:34:11.090Z,0.42
2022-11-22T07:35:13.810Z,0.38
2022-11-22T07:36:21.365Z,0.46
2022-11-22T07:37:27.198Z,0.40
2022-11-22T07:38:30.314Z,0.42
2022-11-22T07:39:40.005Z,0.42
2022-11-22T08:43:16.429Z,0.94
2022-11-22T08:44:20.550Z,0.87
2022-11-22T08:45:26.083Z,0.81
2022-11-22T08:46:31.172Z,1.01
2022-11-22T08:47:38.895Z,1.01
2022-11-22T08:48:45.102Z,0.89
2022-11-22T08:55:17.114Z,0.93
2022-11-22T08:56:21.615Z,0.89
2022-11-22T08:57:27.518Z,0.98
2022-11-22T08:58:41.478Z,1.11
2022-11-22T08:59:52.292Z,1.02
2022-11-22T09:01:10.844Z,1.00
2022-11-22T09:02:14.881Z,1.00
2022-11-22T09:03:20.634Z,1.12
2022-11-22T09:04:26.459Z,0.96
2022-11-22T09:05:31.204Z,1.02
2022-11-22T09:13:30.564Z,1.28
2022-11-22T09:14:40.086Z,1.25
2022-11-22T09:15:45.705Z,1.29
2022-11-22T09:33:41.038Z,1.33
2022-11-22T09:34:51.732Z,1.39
2022-11-22T09:36:05.010Z,1.45
2022-11-22T09:37:09.071Z,1.40
2022-11-22T09:38:17.246Z,1.43
2022-11-22T09:39:23.419Z,1.49
2022-11-22T09:40:26.018Z,1.56
2022-11-22T09:42:11.786Z,1.52
2022-11-22T09:44:03.534Z,1.48
2022-11-22T09:45:48.255Z,1.45
2022-11-22T09:47:10.822Z,1.47
2022-11-22T09:48:23.009Z,1.44
2022-11-22T09:49:37.349Z,1.43
2022-11-22T09:51:23.526Z,1.47
2022-11-22T09:52:36.381Z,1.53
2022-11-22T09:53:50.941Z,1.66
2022-11-22T09:55:13.721Z,1.59
2022-11-22T09:56:23.001Z,1.59
2022-11-22T09:57:51.248Z,1.62
2022-11-22T09:59:08.770Z,1.53
2022-11-22T10:00:35.852Z,1.55
2022-11-22T10:05:22.310Z,1.60
2022-11-22T10:06:41.241Z,1.49
2022-11-22T10:07:55.273Z,1.58
2022-11-22T10:09:39.310Z,1.55
2022-11-22T10:10:53.007Z,1.53
2022-11-22T10:12:03.080Z,1.57
2022-11-22T10:15:36.312Z,1.60
2022-11-22T10:16:53.497Z,1.63
2022-11-22T10:18:04.858Z,1.70
2022-11-22T10:19:32.611Z,1.54
2022-11-22T10:20:47.304Z,1.70
2022-11-22T10:21:58.366Z,1.52
2022-11-22T10:23:06.460Z,1.55
2022-11-22T10:24:18.052Z,1.57
2022-11-22T10:25:40.240Z,1.61
2022-11-22T10:35:45.974Z,1.77
2022-11-22T10:46:13.898Z,1.79
2022-11-22T10:47:47.680Z,1.76
2022-11-22T10:49:31.846Z,1.75
2022-11-22T10:51:12.937Z,1.77
2022-11-22T10:53:13.278Z,1.76
2022-11-22T10:55:06.512Z,1.77
2022-11-22T10:56:52.235Z,1.77
2022-11-22T10:58:19.725Z,1.82
2022-11-22T10:59:43.200Z,1.79
2022-11-22T11:01:01.412Z,1.74
2022-11-22T11:02:38.522Z,1.84
2022-11-22T11:03:49.894Z,1.84
2022-11-22T11:05:05.366Z,1.82
2022-11-22T11:23:27.786Z,1.84
2022-11-22T11:24:32.675Z,1.85
2022-11-22T11:25:41.070Z,1.91
2022-11-22T11:53:26.928Z,1.78
2022-11-22T11:54:44.655Z,1.87
2022-11-22T11:55:47.449Z,1.79
2022-11-22T11:56:57.985Z,1.87
2022-11-22T11:58:04.133Z,1.87
2022-11-22T11:59:16.644Z,1.86
2022-11-22T12:00:26.325Z,1.92
2022-11-22T12:01:38.948Z,1.84
2022-11-22T12:02:46.826Z,1.94
2022-11-22T12:03:59.058Z,1.86
2022-11-22T12:05:34.948Z,1.85
2022-11-22T12:06:43.709Z,1.79
2022-11-22T12:07:52.988Z,1.83
2022-11-22T12:09:01.040Z,1.92
2022-11-22T12:10:27.359Z,1.90
2022-11-22T12:11:49.192Z,1.88
2022-11-22T12:13:13.562Z,1.87
2022-11-22T12:14:37.572Z,1.93
2022-11-22T12:16:10.916Z,1.85
2022-11-22T12:17:31.917Z,1.99
2022-11-22T12:18:58.815Z,1.99
2022-11-22T12:20:22.192Z,1.89
2022-11-22T12:21:40.029Z,1.96
2022-11-22T12:23:11.438Z,1.94
2022-11-22T12:24:48.767Z,1.99
2022-11-22T12:26:02.791Z,1.91
2022-11-22T15:12:40.529Z,2.24
2022-11-22T15:14:03.841Z,2.23
2022-11-22T15:58:21.385Z,2.25
2022-11-22T15:59:47.324Z,2.32
2022-11-22T16:01:19.173Z,2.38
2022-11-22T16:04:31.356Z,2.30
2022-11-22T16:06:04.368Z,2.34
2022-11-22T16:07:53.891Z,2.32
2022-11-22T16:09:15.716Z,2.26
2022-11-22T16:10:45.848Z,2.20
2022-11-22T16:12:04.340Z,2.23
2022-11-22T16:13:48.667Z,2.22
2022-11-22T16:15:27.528Z,2.24
2022-11-22T16:16:36.338Z,2.33
2022-11-22T16:17:59.172Z,2.29
2022-11-22T16:19:25.386Z,2.21
2022-11-22T16:20:37.766Z,2.12
2022-11-22T16:21:56.562Z,2.16
2022-11-22T16:25:33.859Z,2.25
2022-11-22T16:26:55.459Z,2.27
2022-11-22T16:31:33.255Z,2.22
2022-11-22T17:12:45.319Z,2.11
2022-11-22T17:13:49.854Z,2.14
2022-11-22T17:14:54.124Z,2.25
2022-11-22T17:16:02.319Z,2.11
2022-11-22T17:17:08.155Z,2.19
2022-11-22T17:18:13.379Z,2.18
2022-11-22T17:19:51.635Z,2.05
2022-11-22T17:20:52.204Z,2.20
2022-11-22T17:21:58.445Z,2.20
2022-11-22T17:24:11.254Z,2.14
2022-11-22T17:25:20.580Z,2.04
2022-11-22T17:28:06.888Z,2.27
2022-11-22T17:29:57.845Z,2.20
2022-11-22T17:31:47.323Z,2.17
2022-11-22T17:54:54.614Z,2.15
2022-11-22T18:04:32.217Z,2.17
2022-11-22T18:05:40.953Z,2.17
2022-11-22T18:08:21.899Z,2.22
2022-11-22T18:09:53.345Z,2.20
2022-11-22T18:11:05.807Z,2.25
2022-11-22T18:12:14.290Z,2.22
2022-11-22T18:13:29.268Z,2.26
2022-11-22T18:15:03.534Z,2.24
2022-11-22T18:16:45.006Z,2.21
2022-11-22T18:18:55.114Z,2.18
2022-11-22T18:26:41.091Z,2.04
2022-11-22T18:30:55.567Z,2.17
2022-11-22T18:32:34.384Z,2.17
2022-11-22T18:33:57.662Z,2.19
2022-11-22T18:35:30.390Z,2.19
2022-11-22T18:37:19.880Z,2.22
2022-11-22T18:38:31.641Z,2.17
2022-11-22T18:40:11.378Z,2.19
2022-11-22T18:44:36.526Z,2.16
2022-11-22T18:46:22.030Z,2.17
2022-11-22T18:47:35.109Z,2.22
2022-11-22T18:48:50.523Z,2.16
2022-11-22T18:50:12.249Z,2.19
2022-11-22T18:53:17.180Z,2.22
2022-11-22T18:54:31.664Z,2.24
2022-11-22T18:57:04.539Z,2.13
2022-11-22T18:59:07.859Z,2.11
2022-11-22T19:01:33.302Z,2.16
2022-11-22T19:02:52.937Z,2.23
2022-11-22T19:04:07.354Z,2.27
2022-11-22T19:05:13.923Z,2.34
2022-11-22T19:06:31.105Z,2.32
2022-11-22T19:07:52.111Z,2.28
2022-11-22T19:09:21.852Z,2.23
2022-11-22T19:11:05.361Z,2.22
2022-11-22T19:12:18.030Z,2.25
2022-11-22T19:13:44.203Z,2.35
2022-11-22T19:14:58.263Z,2.25
2022-11-22T19:16:15.415Z,2.17
2022-11-22T19:17:22.050Z,2.14
2022-11-22T19:18:31.466Z,2.17
2022-11-22T19:19:40.607Z,2.21
2022-11-22T19:20:55.087Z,2.15
2022-11-22T19:22:01.146Z,2.18
2022-11-22T19:23:11.052Z,2.19
2022-11-22T19:29:09.866Z,2.15
2022-11-22T19:30:18.028Z,2.25
2022-11-22T19:31:37.490Z,2.12
2022-11-22T19:32:49.369Z,2.24
2022-11-22T19:34:00.035Z,2.15
2022-11-22T19:35:16.966Z,2.19
2022-11-22T19:36:33.142Z,2.23
2022-11-22T19:37:40.236Z,2.35
2022-11-22T19:38:46.819Z,2.30
2022-11-22T19:40:02.458Z,2.28
2022-11-22T19:41:10.092Z,2.18
2022-11-22T19:43:57.392Z,2.24
2022-11-22T19:45:09.320Z,2.28
2022-11-22T19:46:13.455Z,2.36
2022-11-22T19:47:21.721Z,2.26
2022-11-22T19:52:24.293Z,2.44
2022-11-22T19:55:47.821Z,2.55
2022-11-22T19:56:52.059Z,2.48
2022-11-22T19:57:58.703Z,2.45
2022-11-22T19:59:11.934Z,2.42
2022-11-22T20:00:26.834Z,2.47
2022-11-22T20:01:44.357Z,2.54
2022-11-22T20:08:24.087Z,2.55
2022-11-22T20:09:41.585Z,2.41
2022-11-22T20:13:26.816Z,2.39
2022-11-22T20:17:45.017Z,2.44
2022-11-22T20:20:28.051Z,2.24
2022-11-22T20:21:42.342Z,2.29
2022-11-22T20:23:09.442Z,2.37
2022-11-22T20:24:45.336Z,2.44
2022-11-22T20:27:24.360Z,2.55
2022-11-22T20:34:48.077Z,2.58
2022-11-22T20:36:04.358Z,2.57
2022-11-22T20:37:10.321Z,2.58
2022-11-22T20:38:22.893Z,2.54
2022-11-22T20:42:05.896Z,2.41
2022-11-22T20:43:17.341Z,2.54
2022-11-22T20:44:54.076Z,2.57
2022-11-22T20:46:07.012Z,2.52
2022-11-22T20:47:13.236Z,2.40
2022-11-22T20:48:19.834Z,2.42
2022-11-22T20:49:31.203Z,2.39
2022-11-22T21:02:47.937Z,2.32
2022-11-22T21:06:05.675Z,2.39
2022-11-22T21:09:27.555Z,2.38
2022-11-22T21:11:20.007Z,2.32
2022-11-22T21:12:29.367Z,2.22
2022-11-22T21:13:59.497Z,2.26
2022-11-22T21:15:27.658Z,2.38
2022-11-22T21:20:48.659Z,2.32
2022-11-22T21:21:59.813Z,2.34
2022-11-22T21:23:07.432Z,2.36
2022-11-22T21:24:15.719Z,2.40
2022-11-22T21:25:23.207Z,2.33
2022-11-22T21:35:45.765Z,2.34
2022-11-22T21:37:04.030Z,2.38
2022-11-22T21:39:39.559Z,2.42
2022-11-22T21:41:10.763Z,2.47
2022-11-22T21:42:24.205Z,2.43
2022-11-22T21:43:50.044Z,2.35
2022-11-22T21:45:07.210Z,2.51
2022-11-22T21:46:29.221Z,2.44
2022-11-22T21:47:57.532Z,2.52
2022-11-22T21:49:37.075Z,2.54
2022-11-22T21:51:12.360Z,2.51
2022-11-22T21:54:08.044Z,2.50
2022-11-22T21:55:27.790Z,2.51
2022-11-22T21:57:06.928Z,2.47
2022-11-22T21:58:45.656Z,2.43
2022-11-22T22:04:00.458Z,2.46
2022-11-22T22:05:08.011Z,2.47
2022-11-22T22:06:14.170Z,2.53
2022-11-22T22:07:51.542Z,2.48
2022-11-22T22:08:52.912Z,2.54
2022-11-22T22:10:00.396Z,2.62
2022-11-22T22:11:07.995Z,2.66
2022-11-22T22:12:16.543Z,2.69
2022-11-22T22:13:38.070Z,2.56
2022-11-22T22:14:48.594Z,2.64
2022-11-22T22:15:58.651Z,2.63
2022-11-22T22:17:08.639Z,2.58
2022-11-22T22:18:19.466Z,2.37
2022-11-22T22:19:28.440Z,2.44
2022-11-22T22:20:45.699Z,2.55
2022-11-22T22:21:53.878Z,2.55
2022-11-22T22:22:59.559Z,2.55
2022-11-22T22:24:07.503Z,2.46
2022-11-22T22:25:24.866Z,2.45
2022-11-22T22:26:35.581Z,2.47
2022-11-22T22:27:39.688Z,2.49
2022-11-22T22:28:46.405Z,2.56
2022-11-22T22:29:53.918Z,2.60
2022-11-22T22:31:11.411Z,2.41
2022-11-22T22:32:15.861Z,2.40
2022-11-22T22:33:22.199Z,2.47
2022-11-22T22:34:26.469Z,2.40
2022-11-22T22:36:57.107Z,2.38
2022-11-22T22:38:18.188Z,2.35
2022-11-22T22:39:24.665Z,2.39
2022-11-22T22:40:31.789Z,2.38
2022-11-22T22:42:57.256Z,2.55
2022-11-22T22:44:01.666Z,2.42
2022-11-22T22:45:06.533Z,2.40
2022-11-22T22:46:20.259Z,2.42
2022-11-22T22:47:34.793Z,2.37
2022-11-22T22:48:47.290Z,2.33
2022-11-22T22:49:52.775Z,2.40
2022-11-22T22:51:02.638Z,2.42
2022-11-22T22:52:07.385Z,2.42
2022-11-22T22:53:20.571Z,2.46
2022-11-22T22:54:26.232Z,2.39
2022-11-22T22:55:32.010Z,2.37
2022-11-22T22:56:37.076Z,2.52
2022-11-22T22:57:41.249Z,2.53
2022-11-22T22:58:57.033Z,2.57
2022-11-22T23:00:28.250Z,2.54
2022-11-22T23:01:40.413Z,2.60
2022-11-22T23:02:47.589Z,2.75
2022-11-22T23:03:59.704Z,2.52
2022-11-22T23:05:09.002Z,2.52
2022-11-22T23:06:18.097Z,2.54
2022-11-22T23:07:22.670Z,2.66
2022-11-22T23:08:39.658Z,2.63
2022-11-22T23:09:51.364Z,2.71
2022-11-22T23:11:48.581Z,2.57
2022-11-22T23:12:57.082Z,2.63
2022-11-22T23:15:57.752Z,2.51
2022-11-22T23:17:06.147Z,2.49
2022-11-22T23:18:42.518Z,2.41
2022-11-22T23:19:49.587Z,2.42
2022-11-22T23:21:00.304Z,2.44
2022-11-22T23:22:07.486Z,2.41
2022-11-22T23:23:15.166Z,2.49
2022-11-22T23:24:24.871Z,2.60
2022-11-22T23:25:32.324Z,2.49
2022-11-22T23:26:45.296Z,2.47
2022-11-22T23:27:51.581Z,2.62
2022-11-22T23:29:01.945Z,2.61
2022-11-22T23:30:16.038Z,2.64
2022-11-22T23:31:21.294Z,2.54
2022-11-22T23:32:35.232Z,2.51
2022-11-22T23:33:45.818Z,2.73
2022-11-22T23:35:16.943Z,2.58
2022-11-22T23:36:27.394Z,2.57
2022-11-22T23:37:49.020Z,2.46
2022-11-22T23:39:01.269Z,2.42
2022-11-22T23:40:11.827Z,2.49
2022-11-22T23:41:26.982Z,2.48
2022-11-22T23:42:35.082Z,2.60
2022-11-22T23:44:09.255Z,2.47
2022-11-22T23:46:50.727Z,2.52
2022-11-22T23:47:59.185Z,2.64
2022-11-22T23:49:34.169Z,2.64
2022-11-22T23:50:42.048Z,2.57
2022-11-22T23:51:48.264Z,2.60
2022-11-22T23:53:03.832Z,2.68
2022-11-22T23:54:11.330Z,2.57
2022-11-22T23:55:28.561Z,2.59
2022-11-22T23:56:38.852Z,2.69
2022-11-22T23:57:51.348Z,2.68
2022-11-22T23:58:59.184Z,2.52
